Friday, January 18, 2019, 3:25 AM EST
Back to Local

KMQE, Milton Blue Hill Observ

Location: Milton, MA, United States Lat: 42.217
Local Time: 3:25 AM EST ( 8:25 GMT) Lon: -71.117
Time Zone: US/Eastern Elev: 629 ft

Show me the last for .
Show Decoded

2019-01-18 02:56 METAR KMQE 180756Z AUTO 13008KT M05/M16 A3020 RMK AO1 SLP247 T10501156 =
2019-01-18 01:56 METAR KMQE 180656Z AUTO 13009KT M06/M14 A3022 RMK AO1 SLP252 T10561144 =
2019-01-18 00:56 METAR KMQE 180556Z AUTO 11010KT M06/M14 A3021 RMK AO1 SLP251 T10611139 11061
                 21067 58021 =
2019-01-17 23:56 METAR KMQE 180456Z AUTO 13010KT M07/M13 A3025 RMK AO1 SLP265 T10671133 410331106
                 =
2019-01-17 22:56 METAR KMQE 180356Z AUTO 14008KT M06/M13 A3027 RMK AO1 SLP273 T10611133 =
2019-01-17 20:56 METAR KMQE 180156Z AUTO 14007KT M06/M14 A3028 RMK AO1 SLP277 T10611144 =
2019-01-17 19:56 METAR KMQE 180056Z AUTO 14009KT M06/M14 A3029 RMK AO1 SLP279 T10611144 =
2019-01-17 18:56 METAR KMQE 172356Z AUTO 13007KT M06/M16 A3029 RMK AO1 SLP280 T10611161 11033
                 21061 52002 =
2019-01-17 17:56 METAR KMQE 172256Z AUTO 11007KT M06/M19 A3029 RMK AO1 SLP279 T10561189 =
2019-01-17 16:56 METAR KMQE 172156Z AUTO 13003KT M05/M21 A3029 RMK AO1 SLP277 T10501211 =
2019-01-17 15:56 METAR KMQE 172056Z AUTO 00000KT M04/M21 A3028 RMK AO1 SLP275 T10391206 58006 =
2019-01-17 14:56 METAR KMQE 171956Z AUTO 00000KT M03/M21 A3029 RMK AO1 SLP277 T10331211 =
2019-01-17 13:56 METAR KMQE 171856Z AUTO 00000KT M04/M21 A3030 RMK AO1 SLP281 T10391211 =
2019-01-17 12:56 METAR KMQE 171756Z AUTO VRB03KT M04/M21 A3030 RMK AO1 SLP282 T10441211 11044
                 21106 58016 =
2019-01-17 11:56 METAR KMQE 171656Z AUTO VRB04KT M05/M21 A3032 RMK AO1 SLP288 T10501206 =
2019-01-17 10:56 METAR KMQE 171556Z AUTO 33008KT M07/M20 A3035 RMK AO1 SLP296 T10671200 =
2019-01-17 09:56 METAR KMQE 171456Z AUTO 33009KT M08/M18 A3035 RMK AO1 SLP298 T10831183 53023 =
2019-01-17 08:56 METAR KMQE 171356Z AUTO 33009G14KT M09/M17 A3033 RMK AO1 SLP292 T10941172 =
2019-01-17 07:56 METAR KMQE 171256Z AUTO 32009KT M10/M17 A3030 RMK AO1 SLP280 T11001172 =
2019-01-17 06:56 METAR KMQE 171156Z AUTO 32012G18KT M10/M17 A3028 RMK AO1 SLP275 T11001172 11033
                 21100 51022 =
2019-01-17 05:56 METAR KMQE 171056Z AUTO 33009KT M09/M16 A3026 RMK AO1 SLP266 T10891161 =
2019-01-17 04:56 METAR KMQE 170956Z AUTO 32007G18KT M08/M17 A3024 RMK AO1 SLP262 T10781167 =
2019-01-17 03:56 METAR KMQE 170856Z AUTO 32009G18KT M07/M16 A3022 RMK AO1 SLP251 T10671156 51032
                 =

Support USWX by starting your Amazon purchase here.